sensor_id;sensor_type;location;lat;lon;timestamp;pressure;altitude;pressure_sealevel;temperature;humidity
5238;BME280;2639;49.700;7.962;2022-08-19T03:19:21;98429.75;;;18.67;100.00
5238;BME280;2639;49.700;7.962;2022-08-19T03:22:32;98427.94;;;18.64;100.00
5238;BME280;2639;49.700;7.962;2022-08-19T03:25:44;98431.41;;;18.65;100.00
5238;BME280;2639;49.700;7.962;2022-08-19T03:29:11;98440.94;;;18.64;100.00
5238;BME280;2639;49.700;7.962;2022-08-19T03:32:21;98448.66;;;18.63;100.00
5238;BME280;2639;49.700;7.962;2022-08-19T03:35:42;98458.19;;;18.62;100.00
5238;BME280;2639;49.700;7.962;2022-08-19T03:38:55;98464.25;;;18.63;100.00
5238;BME280;2639;49.700;7.962;2022-08-19T03:42:08;98457.41;;;18.65;100.00
5238;BME280;2639;49.700;7.962;2022-08-19T03:45:38;98465.22;;;18.65;100.00
5238;BME280;2639;49.700;7.962;2022-08-19T03:48:50;98463.50;;;18.65;100.00
5238;BME280;2639;49.700;7.962;2022-08-19T03:52:04;98466.94;;;18.64;100.00
5238;BME280;2639;49.700;7.962;2022-08-19T03:55:18;98463.38;;;18.62;100.00
5238;BME280;2639;49.700;7.962;2022-08-19T03:58:29;98463.28;;;18.59;100.00
5238;BME280;2639;49.700;7.962;2022-08-19T04:01:40;98470.13;;;18.57;100.00
5238;BME280;2639;49.700;7.962;2022-08-19T04:04:53;98484.78;;;18.55;100.00
5238;BME280;2639;49.700;7.962;2022-08-19T04:08:05;98478.63;;;18.53;100.00
5238;BME280;2639;49.700;7.962;2022-08-19T04:11:22;98474.28;;;18.52;100.00
5238;BME280;2639;49.700;7.962;2022-08-19T04:14:52;98469.78;;;18.48;100.00
5238;BME280;2639;49.700;7.962;2022-08-19T04:18:02;98473.16;;;18.45;100.00
5238;BME280;2639;49.700;7.962;2022-08-19T04:21:16;98462.69;;;18.44;100.00
5238;BME280;2639;49.700;7.962;2022-08-19T04:24:30;98466.13;;;18.43;100.00
5238;BME280;2639;49.700;7.962;2022-08-19T04:27:41;98471.16;;;18.40;100.00
5238;BME280;2639;49.700;7.962;2022-08-19T04:30:55;98472.81;;;18.38;100.00
5238;BME280;2639;49.700;7.962;2022-08-19T04:34:08;98470.94;;;18.34;100.00
5238;BME280;2639;49.700;7.962;2022-08-19T04:37:20;98463.97;;;18.33;100.00
5238;BME280;2639;49.700;7.962;2022-08-19T04:40:32;98460.41;;;18.30;100.00
5238;BME280;2639;49.700;7.962;2022-08-19T04:43:54;98459.47;;;18.28;100.00
5238;BME280;2639;49.700;7.962;2022-08-19T04:47:12;98457.59;;;18.24;100.00
5238;BME280;2639;49.700;7.962;2022-08-19T04:50:22;98454.84;;;18.21;100.00
5238;BME280;2639;49.700;7.962;2022-08-19T04:53:35;98462.41;;;18.15;100.00
5238;BME280;2639;49.700;7.962;2022-08-19T04:56:48;98470.16;;;18.14;100.00
5238;BME280;2639;49.700;7.962;2022-08-19T07:14:22;98547.31;;;22.31;78.83
5238;BME280;2639;49.700;7.962;2022-08-19T07:17:33;98548.56;;;22.46;78.94
5238;BME280;2639;49.700;7.962;2022-08-19T07:20:47;98547.88;;;22.54;76.48
5238;BME280;2639;49.700;7.962;2022-08-19T07:23:59;98538.94;;;22.83;77.14
5238;BME280;2639;49.700;7.962;2022-08-19T07:27:14;98534.47;;;23.17;75.44
5238;BME280;2639;49.700;7.962;2022-08-19T07:30:36;98536.69;;;23.40;73.23
5238;BME280;2639;49.700;7.962;2022-08-19T07:33:49;98538.63;;;23.50;73.07
5238;BME280;2639;49.700;7.962;2022-08-19T07:37:03;98544.28;;;23.71;71.79
5238;BME280;2639;49.700;7.962;2022-08-19T07:40:14;98543.66;;;23.83;71.34
5238;BME280;2639;49.700;7.962;2022-08-19T07:43:24;98535.34;;;24.06;71.04
5238;BME280;2639;49.700;7.962;2022-08-19T07:46:46;98532.69;;;24.04;69.74
5238;BME280;2639;49.700;7.962;2022-08-19T07:50:01;98534.53;;;24.10;69.53
5238;BME280;2639;49.700;7.962;2022-08-19T07:53:15;98542.00;;;24.37;69.64
5238;BME280;2639;49.700;7.962;2022-08-19T07:56:26;98550.25;;;24.59;68.12
5238;BME280;2639;49.700;7.962;2022-08-19T07:59:36;98548.47;;;24.57;67.55
5238;BME280;2639;49.700;7.962;2022-08-19T08:02:48;98559.53;;;24.40;67.96
5238;BME280;2639;49.700;7.962;2022-08-19T08:05:59;98557.59;;;24.28;68.61
5238;BME280;2639;49.700;7.962;2022-08-19T08:09:27;98558.66;;;24.41;68.86
5238;BME280;2639;49.700;7.962;2022-08-19T08:12:41;98565.09;;;24.56;66.97
5238;BME280;2639;49.700;7.962;2022-08-19T08:16:12;98560.31;;;24.32;67.90
5238;BME280;2639;49.700;7.962;2022-08-19T08:19:25;98555.97;;;24.36;67.72
5238;BME280;2639;49.700;7.962;2022-08-19T08:22:36;98557.97;;;24.49;68.21
5238;BME280;2639;49.700;7.962;2022-08-19T08:25:57;98561.66;;;24.61;66.81
5238;BME280;2639;49.700;7.962;2022-08-19T08:29:09;98558.97;;;24.56;67.24
5238;BME280;2639;49.700;7.962;2022-08-19T08:32:22;98562.78;;;24.78;66.95
5238;BME280;2639;49.700;7.962;2022-08-19T08:35:34;98563.84;;;24.89;67.07
5238;BME280;2639;49.700;7.962;2022-08-19T08:38:45;98560.13;;;24.75;66.88
5238;BME280;2639;49.700;7.962;2022-08-19T08:42:01;98560.13;;;24.75;66.70
5238;BME280;2639;49.700;7.962;2022-08-19T08:45:24;98565.41;;;24.78;68.08
5238;BME280;2639;49.700;7.962;2022-08-19T08:48:46;98566.94;;;24.64;66.21
5238;BME280;2639;49.700;7.962;2022-08-19T08:52:11;98566.59;;;24.42;67.17
5238;BME280;2639;49.700;7.962;2022-08-19T08:55:26;98567.94;;;24.70;66.75
5238;BME280;2639;49.700;7.962;2022-08-19T08:58:51;98570.22;;;24.50;67.75
5238;BME280;2639;49.700;7.962;2022-08-19T09:02:05;98568.91;;;24.77;65.85
5238;BME280;2639;49.700;7.962;2022-08-19T09:05:15;98571.59;;;25.43;64.75
5238;BME280;2639;49.700;7.962;2022-08-19T09:08:40;98564.81;;;26.44;61.17
5238;BME280;2639;49.700;7.962;2022-08-19T09:12:02;98568.78;;;27.04;59.39
5238;BME280;2639;49.700;7.962;2022-08-19T09:15:28;98558.56;;;27.69;58.45
5238;BME280;2639;49.700;7.962;2022-08-19T09:18:43;98557.69;;;27.82;55.47
5238;BME280;2639;49.700;7.962;2022-08-19T09:21:55;98560.25;;;27.58;57.49
5238;BME280;2639;49.700;7.962;2022-08-19T09:25:10;98564.34;;;27.03;58.02
5238;BME280;2639;49.700;7.962;2022-08-19T09:28:21;98577.38;;;26.77;58.72
5238;BME280;2639;49.700;7.962;2022-08-19T09:31:35;98567.75;;;26.84;58.90
5238;BME280;2639;49.700;7.962;2022-08-19T09:34:46;98554.06;;;27.43;56.69
5238;BME280;2639;49.700;7.962;2022-08-19T09:37:59;98562.94;;;27.73;55.01
5238;BME280;2639;49.700;7.962;2022-08-19T09:41:13;98567.16;;;27.31;56.13
5238;BME280;2639;49.700;7.962;2022-08-19T09:44:25;98552.91;;;27.01;56.86
5238;BME280;2639;49.700;7.962;2022-08-19T09:47:36;98543.50;;;27.46;56.86
5238;BME280;2639;49.700;7.962;2022-08-19T09:50:48;98530.47;;;27.94;55.62
5238;BME280;2639;49.700;7.962;2022-08-19T09:54:02;98526.97;;;28.24;55.02
5238;BME280;2639;49.700;7.962;2022-08-19T09:57:16;98530.50;;;28.05;53.50
5238;BME280;2639;49.700;7.962;2022-08-19T10:00:27;98516.44;;;28.09;52.77
5238;BME280;2639;49.700;7.962;2022-08-19T10:03:37;98529.63;;;28.06;53.01
5238;BME280;2639;49.700;7.962;2022-08-19T10:06:49;98526.06;;;27.91;52.68
5238;BME280;2639;49.700;7.962;2022-08-19T10:10:03;98523.47;;;28.44;52.39
5238;BME280;2639;49.700;7.962;2022-08-19T10:13:20;98528.75;;;28.74;49.82
5238;BME280;2639;49.700;7.962;2022-08-19T10:16:36;98530.47;;;28.92;49.02
5238;BME280;2639;49.700;7.962;2022-08-19T10:19:48;98530.44;;;29.06;46.84
5238;BME280;2639;49.700;7.962;2022-08-19T10:23:03;98519.00;;;29.04;48.50
5238;BME280;2639;49.700;7.962;2022-08-19T10:26:17;98514.59;;;29.11;48.36
5238;BME280;2639;49.700;7.962;2022-08-19T10:29:30;98508.31;;;29.35;47.96
5238;BME280;2639;49.700;7.962;2022-08-19T10:32:41;98516.25;;;29.36;47.35
5238;BME280;2639;49.700;7.962;2022-08-19T10:35:59;98511.94;;;29.09;48.54
5238;BME280;2639;49.700;7.962;2022-08-19T10:39:10;98510.16;;;29.05;48.16
5238;BME280;2639;49.700;7.962;2022-08-19T10:42:21;98504.00;;;29.15;48.25
5238;BME280;2639;49.700;7.962;2022-08-19T10:45:33;98512.78;;;29.27;47.46
5238;BME280;2639;49.700;7.962;2022-08-19T10:49:01;98495.81;;;29.65;47.96
5238;BME280;2639;49.700;7.962;2022-08-19T10:52:13;98498.22;;;30.05;46.09
5238;BME280;2639;49.700;7.962;2022-08-19T10:55:41;98504.34;;;30.10;47.32
5238;BME280;2639;49.700;7.962;2022-08-19T10:59:03;98495.31;;;30.41;46.44
5238;BME280;2639;49.700;7.962;2022-08-19T11:02:15;98484.34;;;30.78;44.35
5238;BME280;2639;49.700;7.962;2022-08-19T11:05:26;98485.72;;;31.13;43.89
5238;BME280;2639;49.700;7.962;2022-08-19T11:08:38;98500.19;;;30.88;43.29
5238;BME280;2639;49.700;7.962;2022-08-19T11:11:48;98494.91;;;30.85;42.98
5238;BME280;2639;49.700;7.962;2022-08-19T11:15:00;98492.22;;;30.86;41.33
5238;BME280;2639;49.700;7.962;2022-08-19T11:18:12;98473.16;;;31.28;42.79
5238;BME280;2639;49.700;7.962;2022-08-19T11:21:26;98481.97;;;31.93;43.02
5238;BME280;2639;49.700;7.962;2022-08-19T11:24:39;98478.28;;;32.05;40.69
5238;BME280;2639;49.700;7.962;2022-08-19T11:27:49;98486.75;;;31.73;39.89
5238;BME280;2639;49.700;7.962;2022-08-19T11:31:02;98474.66;;;31.50;40.52
5238;BME280;2639;49.700;7.962;2022-08-19T11:34:17;98491.59;;;30.58;42.03
5238;BME280;2639;49.700;7.962;2022-08-19T11:37:29;98476.28;;;29.92;44.01
5238;BME280;2639;49.700;7.962;2022-08-19T11:40:41;98467.75;;;30.56;42.64
5238;BME280;2639;49.700;7.962;2022-08-19T11:43:51;98452.84;;;31.25;40.59
5238;BME280;2639;49.700;7.962;2022-08-19T11:47:05;98447.88;;;31.65;40.38
5238;BME280;2639;49.700;7.962;2022-08-19T11:50:19;98460.03;;;31.17;40.09
5238;BME280;2639;49.700;7.962;2022-08-19T11:53:30;98458.34;;;30.28;41.22
5238;BME280;2639;49.700;7.962;2022-08-19T11:56:42;98446.88;;;30.27;41.42
5238;BME280;2639;49.700;7.962;2022-08-19T11:59:53;98442.06;;;30.66;41.49
5238;BME280;2639;49.700;7.962;2022-08-19T12:03:03;98440.56;;;31.18;41.91
5238;BME280;2639;49.700;7.962;2022-08-19T12:06:20;98447.78;;;31.05;41.14
5238;BME280;2639;49.700;7.962;2022-08-19T12:09:36;98444.66;;;30.68;41.68
5238;BME280;2639;49.700;7.962;2022-08-19T12:12:50;98431.06;;;30.15;42.76
5238;BME280;2639;49.700;7.962;2022-08-19T12:20:46;98417.75;;;31.06;39.82
5238;BME280;2639;49.700;7.962;2022-08-19T12:23:59;98413.38;;;31.02;40.18
5238;BME280;2639;49.700;7.962;2022-08-19T12:27:09;98406.50;;;30.86;39.92
5238;BME280;2639;49.700;7.962;2022-08-19T12:30:20;98399.56;;;30.72;41.44
5238;BME280;2639;49.700;7.962;2022-08-19T12:33:30;98406.44;;;30.90;40.32
5238;BME280;2639;49.700;7.962;2022-08-19T12:36:40;98403.38;;;31.24;41.71
5238;BME280;2639;49.700;7.962;2022-08-19T12:39:51;98402.63;;;32.26;40.16
5238;BME280;2639;49.700;7.962;2022-08-19T12:43:03;98413.09;;;32.35;40.40
5238;BME280;2639;49.700;7.962;2022-08-19T12:46:15;98419.09;;;32.48;39.37
5238;BME280;2639;49.700;7.962;2022-08-19T12:49:27;98420.00;;;32.45;38.71
5238;BME280;2639;49.700;7.962;2022-08-19T12:52:57;98409.16;;;32.58;38.17
5238;BME280;2639;49.700;7.962;2022-08-19T12:56:10;98407.63;;;32.91;39.15
5238;BME280;2639;49.700;7.962;2022-08-19T12:59:21;98395.59;;;33.15;37.80
5238;BME280;2639;49.700;7.962;2022-08-19T13:02:31;98407.13;;;33.16;37.88
5238;BME280;2639;49.700;7.962;2022-08-19T13:05:50;98414.81;;;32.39;38.46
5238;BME280;2639;49.700;7.962;2022-08-19T13:09:00;98406.72;;;32.47;39.17
5238;BME280;2639;49.700;7.962;2022-08-19T13:12:11;98410.81;;;32.65;38.36
5238;BME280;2639;49.700;7.962;2022-08-19T13:15:23;98411.56;;;33.15;36.81
5238;BME280;2639;49.700;7.962;2022-08-19T13:18:32;98409.88;;;33.11;38.27
5238;BME280;2639;49.700;7.962;2022-08-19T13:21:42;98425.06;;;32.11;37.65
5238;BME280;2639;49.700;7.962;2022-08-19T13:24:53;98426.63;;;31.65;37.88
5238;BME280;2639;49.700;7.962;2022-08-19T13:28:04;98432.84;;;31.01;39.67
5238;BME280;2639;49.700;7.962;2022-08-19T13:31:16;98426.13;;;30.69;39.74
5238;BME280;2639;49.700;7.962;2022-08-19T13:34:40;98427.19;;;31.25;39.81
5238;BME280;2639;49.700;7.962;2022-08-19T13:37:49;98429.88;;;31.86;37.17
5238;BME280;2639;49.700;7.962;2022-08-19T13:41:04;98420.19;;;32.36;35.39
5238;BME280;2639;49.700;7.962;2022-08-19T13:44:21;98409.50;;;32.86;34.97
5238;BME280;2639;49.700;7.962;2022-08-19T13:47:30;98403.13;;;33.35;35.53
5238;BME280;2639;49.700;7.962;2022-08-19T13:50:42;98407.81;;;33.64;34.78
5238;BME280;2639;49.700;7.962;2022-08-19T13:53:52;98412.03;;;34.09;34.89
5238;BME280;2639;49.700;7.962;2022-08-19T13:57:03;98408.81;;;34.32;35.20
5238;BME280;2639;49.700;7.962;2022-08-19T14:00:16;98413.81;;;34.44;34.21
5238;BME280;2639;49.700;7.962;2022-08-19T14:03:27;98408.25;;;34.85;34.09
5238;BME280;2639;49.700;7.962;2022-08-19T14:06:37;98415.63;;;35.06;33.76
5238;BME280;2639;49.700;7.962;2022-08-19T14:09:46;98419.09;;;34.11;34.87
5238;BME280;2639;49.700;7.962;2022-08-19T14:12:58;98432.03;;;32.68;36.87
5238;BME280;2639;49.700;7.962;2022-08-19T14:16:11;98435.28;;;31.80;38.62
5238;BME280;2639;49.700;7.962;2022-08-19T14:19:22;98438.22;;;30.93;39.51
5238;BME280;2639;49.700;7.962;2022-08-19T14:22:31;98439.78;;;30.28;40.63
5238;BME280;2639;49.700;7.962;2022-08-19T14:25:42;98441.81;;;29.95;42.35
5238;BME280;2639;49.700;7.962;2022-08-19T14:28:51;98433.25;;;29.54;43.10
5238;BME280;2639;49.700;7.962;2022-08-19T14:32:03;98436.91;;;29.30;42.28
5238;BME280;2639;49.700;7.962;2022-08-19T14:35:15;98430.84;;;29.18;43.90
5238;BME280;2639;49.700;7.962;2022-08-19T14:38:27;98420.25;;;29.14;43.29
5238;BME280;2639;49.700;7.962;2022-08-19T14:41:40;98423.66;;;29.35;42.96
5238;BME280;2639;49.700;7.962;2022-08-19T14:44:50;98416.34;;;29.77;43.76
5238;BME280;2639;49.700;7.962;2022-08-19T14:48:02;98427.53;;;30.13;42.81
5238;BME280;2639;49.700;7.962;2022-08-19T14:51:12;98422.88;;;30.39;41.75
5238;BME280;2639;49.700;7.962;2022-08-19T14:54:22;98411.28;;;30.53;42.27
5238;BME280;2639;49.700;7.962;2022-08-19T14:57:34;98412.28;;;30.41;41.33
5238;BME280;2639;49.700;7.962;2022-08-19T15:00:44;98418.78;;;30.05;41.85
5238;BME280;2639;49.700;7.962;2022-08-19T15:03:57;98419.94;;;29.64;43.45
5238;BME280;2639;49.700;7.962;2022-08-19T15:07:07;98421.91;;;29.37;43.90
5238;BME280;2639;49.700;7.962;2022-08-19T15:10:17;98402.59;;;29.16;43.97
5238;BME280;2639;49.700;7.962;2022-08-19T15:13:28;98409.69;;;29.11;44.45
5238;BME280;2639;49.700;7.962;2022-08-19T15:16:39;98400.81;;;29.22;45.15
5238;BME280;2639;49.700;7.962;2022-08-19T15:19:51;98397.84;;;29.74;44.54
5238;BME280;2639;49.700;7.962;2022-08-19T15:23:01;98395.94;;;29.94;43.76
5238;BME280;2639;49.700;7.962;2022-08-19T15:26:11;98389.81;;;29.89;43.07
5238;BME280;2639;49.700;7.962;2022-08-19T15:29:23;98383.38;;;30.15;42.60
5238;BME280;2639;49.700;7.962;2022-08-19T15:32:33;98380.28;;;30.58;41.79
5238;BME280;2639;49.700;7.962;2022-08-19T15:35:47;98372.06;;;30.79;42.04
5238;BME280;2639;49.700;7.962;2022-08-19T15:38:58;98383.25;;;31.06;41.54
5238;BME280;2639;49.700;7.962;2022-08-19T15:42:08;98388.44;;;31.14;41.64
5238;BME280;2639;49.700;7.962;2022-08-19T15:45:19;98385.28;;;30.86;42.82
5238;BME280;2639;49.700;7.962;2022-08-19T15:48:29;98393.69;;;31.18;41.46
5238;BME280;2639;49.700;7.962;2022-08-19T15:51:44;98389.00;;;30.69;40.59
5238;BME280;2639;49.700;7.962;2022-08-19T15:54:54;98396.69;;;30.09;41.86
5238;BME280;2639;49.700;7.962;2022-08-19T15:58:06;98402.25;;;29.75;42.82
5238;BME280;2639;49.700;7.962;2022-08-19T16:01:35;98400.59;;;29.54;43.23
5238;BME280;2639;49.700;7.962;2022-08-19T16:04:59;98399.22;;;30.19;42.22
5238;BME280;2639;49.700;7.962;2022-08-19T16:08:21;98394.00;;;30.95;40.90
5238;BME280;2639;49.700;7.962;2022-08-19T16:11:33;98397.94;;;31.30;40.91
5238;BME280;2639;49.700;7.962;2022-08-19T16:14:47;98392.19;;;30.99;41.64
5238;BME280;2639;49.700;7.962;2022-08-19T16:17:57;98402.72;;;30.23;42.57
5238;BME280;2639;49.700;7.962;2022-08-19T16:21:10;98407.53;;;29.78;43.74
5238;BME280;2639;49.700;7.962;2022-08-19T16:24:24;98400.16;;;30.14;44.03
5238;BME280;2639;49.700;7.962;2022-08-19T16:27:34;98419.06;;;30.68;42.04
5238;BME280;2639;49.700;7.962;2022-08-19T16:30:44;98402.19;;;30.75;41.17
5238;BME280;2639;49.700;7.962;2022-08-19T16:33:58;98394.25;;;30.75;41.19
5238;BME280;2639;49.700;7.962;2022-08-19T16:37:08;98395.06;;;30.77;42.04
5238;BME280;2639;49.700;7.962;2022-08-19T16:40:19;98409.44;;;30.59;40.73
5238;BME280;2639;49.700;7.962;2022-08-19T16:43:30;98410.34;;;30.57;41.21
5238;BME280;2639;49.700;7.962;2022-08-19T16:46:40;98404.91;;;30.68;40.92
5238;BME280;2639;49.700;7.962;2022-08-19T16:49:50;98403.00;;;30.80;41.06
5238;BME280;2639;49.700;7.962;2022-08-19T16:53:05;98412.09;;;30.58;41.53
5238;BME280;2639;49.700;7.962;2022-08-19T16:56:16;98416.38;;;30.70;42.21
5238;BME280;2639;49.700;7.962;2022-08-19T16:59:26;98416.25;;;30.85;41.05
5238;BME280;2639;49.700;7.962;2022-08-19T17:02:36;98419.59;;;30.98;40.20
5238;BME280;2639;49.700;7.962;2022-08-19T17:05:49;98419.53;;;31.02;39.88
5238;BME280;2639;49.700;7.962;2022-08-19T17:09:00;98420.44;;;31.03;38.60
5238;BME280;2639;49.700;7.962;2022-08-19T17:12:12;98423.16;;;30.98;39.44
5238;BME280;2639;49.700;7.962;2022-08-19T17:15:22;98426.16;;;30.66;39.92
5238;BME280;2639;49.700;7.962;2022-08-19T17:18:32;98427.41;;;30.30;40.76
5238;BME280;2639;49.700;7.962;2022-08-19T17:21:42;98427.47;;;30.22;40.65
5238;BME280;2639;49.700;7.962;2022-08-19T17:24:52;98433.91;;;29.90;40.54
5238;BME280;2639;49.700;7.962;2022-08-19T17:28:08;98428.72;;;29.75;41.12
5238;BME280;2639;49.700;7.962;2022-08-19T17:31:20;98432.38;;;29.55;42.11
5238;BME280;2639;49.700;7.962;2022-08-19T17:34:30;98437.75;;;29.43;42.07
5238;BME280;2639;49.700;7.962;2022-08-19T17:37:40;98443.13;;;29.25;43.37
5238;BME280;2639;49.700;7.962;2022-08-19T17:40:50;98438.78;;;29.01;44.31
5238;BME280;2639;49.700;7.962;2022-08-19T17:44:04;98452.97;;;28.83;44.49
5238;BME280;2639;49.700;7.962;2022-08-19T17:47:13;98458.22;;;28.84;45.05
5238;BME280;2639;49.700;7.962;2022-08-19T17:50:23;98459.13;;;28.82;45.67
5238;BME280;2639;49.700;7.962;2022-08-19T17:53:33;98457.41;;;28.68;43.83
5238;BME280;2639;49.700;7.962;2022-08-19T17:56:44;98468.03;;;28.53;44.05
5238;BME280;2639;49.700;7.962;2022-08-19T17:59:56;98469.78;;;28.32;43.59
5238;BME280;2639;49.700;7.962;2022-08-19T18:03:06;98472.41;;;28.12;43.08
5238;BME280;2639;49.700;7.962;2022-08-19T18:06:19;98475.03;;;27.99;43.78
5238;BME280;2639;49.700;7.962;2022-08-19T18:09:31;98474.13;;;27.81;44.40
5238;BME280;2639;49.700;7.962;2022-08-19T18:12:50;98480.25;;;27.59;44.89
5238;BME280;2639;49.700;7.962;2022-08-19T18:16:02;98488.09;;;27.40;44.90
5238;BME280;2639;49.700;7.962;2022-08-19T18:19:12;98490.72;;;27.25;45.62
5238;BME280;2639;49.700;7.962;2022-08-19T18:22:25;98489.72;;;27.12;45.91
5238;BME280;2639;49.700;7.962;2022-08-19T18:25:35;98491.34;;;26.87;45.92
5238;BME280;2639;49.700;7.962;2022-08-19T18:28:51;98505.38;;;26.78;46.87
5238;BME280;2639;49.700;7.962;2022-08-19T18:32:03;98499.16;;;26.69;47.34
5238;BME280;2639;49.700;7.962;2022-08-19T18:35:16;98498.16;;;26.53;47.74
5238;BME280;2639;49.700;7.962;2022-08-19T18:38:27;98507.72;;;26.43;48.03
5238;BME280;2639;49.700;7.962;2022-08-19T18:41:48;98522.47;;;26.18;48.08
5238;BME280;2639;49.700;7.962;2022-08-19T18:45:10;98532.06;;;26.11;49.09
5238;BME280;2639;49.700;7.962;2022-08-19T18:48:32;98541.59;;;26.01;49.44
5238;BME280;2639;49.700;7.962;2022-08-19T18:51:53;98544.06;;;25.88;50.15
5238;BME280;2639;49.700;7.962;2022-08-19T18:55:06;98539.56;;;25.77;51.80
5238;BME280;2639;49.700;7.962;2022-08-19T18:58:16;98550.91;;;25.73;51.54
5238;BME280;2639;49.700;7.962;2022-08-19T19:01:28;98556.16;;;25.70;51.56
5238;BME280;2639;49.700;7.962;2022-08-19T19:04:40;98564.75;;;25.57;52.08
5238;BME280;2639;49.700;7.962;2022-08-19T19:07:50;98564.59;;;25.42;52.50
5238;BME280;2639;49.700;7.962;2022-08-19T19:11:01;98564.38;;;25.26;52.97
5238;BME280;2639;49.700;7.962;2022-08-19T19:14:17;98579.03;;;25.10;53.70
5238;BME280;2639;49.700;7.962;2022-08-19T19:17:48;98583.16;;;24.94;54.00
5238;BME280;2639;49.700;7.962;2022-08-19T19:20:59;98588.13;;;24.76;55.29
5238;BME280;2639;49.700;7.962;2022-08-19T19:24:08;98584.41;;;24.62;55.24
5238;BME280;2639;49.700;7.962;2022-08-19T19:27:21;98590.22;;;24.44;55.85
5238;BME280;2639;49.700;7.962;2022-08-19T19:30:31;98596.97;;;24.28;56.97
5238;BME280;2639;49.700;7.962;2022-08-19T19:33:41;98608.97;;;24.15;57.29
5238;BME280;2639;49.700;7.962;2022-08-19T19:36:53;98600.78;;;23.98;57.65
5238;BME280;2639;49.700;7.962;2022-08-19T19:40:03;98605.69;;;23.80;58.15
5238;BME280;2639;49.700;7.962;2022-08-19T19:43:13;98613.09;;;23.58;58.80
5238;BME280;2639;49.700;7.962;2022-08-19T19:46:24;98616.34;;;23.46;59.46
5238;BME280;2639;49.700;7.962;2022-08-19T19:49:34;98630.84;;;23.32;60.44
5238;BME280;2639;49.700;7.962;2022-08-19T19:53:06;98633.22;;;23.20;60.71
5238;BME280;2639;49.700;7.962;2022-08-19T19:56:17;98630.41;;;23.12;61.56
5238;BME280;2639;49.700;7.962;2022-08-19T19:59:27;98640.69;;;23.03;62.29
5238;BME280;2639;49.700;7.962;2022-08-19T20:02:37;98644.59;;;22.85;63.02
5238;BME280;2639;49.700;7.962;2022-08-19T20:05:47;98646.97;;;22.75;63.53
5238;BME280;2639;49.700;7.962;2022-08-19T20:08:59;98646.69;;;22.64;63.70
5238;BME280;2639;49.700;7.962;2022-08-19T20:12:18;98646.28;;;22.48;64.79
5238;BME280;2639;49.700;7.962;2022-08-19T20:15:28;98647.84;;;22.40;65.09
5238;BME280;2639;49.700;7.962;2022-08-19T20:18:38;98661.34;;;22.24;65.67
5238;BME280;2639;49.700;7.962;2022-08-19T20:21:48;98670.72;;;22.17;65.94
5238;BME280;2639;49.700;7.962;2022-08-19T20:25:00;98677.38;;;22.06;65.96
5238;BME280;2639;49.700;7.962;2022-08-19T20:28:10;98679.75;;;21.97;66.83
5238;BME280;2639;49.700;7.962;2022-08-19T20:31:21;98676.06;;;21.90;66.52
5238;BME280;2639;49.700;7.962;2022-08-19T20:34:37;98677.66;;;21.85;67.03
5238;BME280;2639;49.700;7.962;2022-08-19T20:37:47;98680.06;;;21.77;67.61
5238;BME280;2639;49.700;7.962;2022-08-19T20:41:05;98677.22;;;21.70;67.79
5238;BME280;2639;49.700;7.962;2022-08-19T20:44:15;98675.94;;;21.55;68.57
5238;BME280;2639;49.700;7.962;2022-08-19T20:47:25;98672.28;;;21.50;68.65
5238;BME280;2639;49.700;7.962;2022-08-19T20:50:37;98674.81;;;21.47;68.78
5238;BME280;2639;49.700;7.962;2022-08-19T20:53:46;98684.97;;;21.38;69.40
5238;BME280;2639;49.700;7.962;2022-08-19T20:56:59;98679.34;;;21.26;69.81
5238;BME280;2639;49.700;7.962;2022-08-19T21:00:11;98684.38;;;21.19;70.38
5238;BME280;2639;49.700;7.962;2022-08-19T21:03:25;98680.94;;;21.20;70.08
5238;BME280;2639;49.700;7.962;2022-08-19T21:06:35;98674.81;;;21.20;70.44
5238;BME280;2639;49.700;7.962;2022-08-19T21:09:45;98679.16;;;21.19;70.71
5238;BME280;2639;49.700;7.962;2022-08-19T21:12:56;98689.41;;;21.13;71.32
5238;BME280;2639;49.700;7.962;2022-08-19T21:16:06;98695.91;;;20.99;71.66
5238;BME280;2639;49.700;7.962;2022-08-19T21:19:17;98697.19;;;20.85;72.33
5238;BME280;2639;49.700;7.962;2022-08-19T21:22:31;98700.75;;;20.87;71.73
5238;BME280;2639;49.700;7.962;2022-08-19T21:25:41;98702.81;;;20.97;71.61
5238;BME280;2639;49.700;7.962;2022-08-19T21:29:03;98706.56;;;21.05;71.49
5238;BME280;2639;49.700;7.962;2022-08-19T21:32:14;98708.25;;;21.03;71.82
5238;BME280;2639;49.700;7.962;2022-08-19T21:35:23;98707.94;;;20.94;72.91
5238;BME280;2639;49.700;7.962;2022-08-19T21:38:33;98700.75;;;20.87;73.31
5238;BME280;2639;49.700;7.962;2022-08-19T21:41:43;98710.28;;;20.86;73.71
5238;BME280;2639;49.700;7.962;2022-08-19T21:44:53;98710.13;;;20.81;73.39
5238;BME280;2639;49.700;7.962;2022-08-19T21:48:03;98710.81;;;20.76;74.18
5238;BME280;2639;49.700;7.962;2022-08-19T21:51:13;98708.19;;;20.76;73.84
5238;BME280;2639;49.700;7.962;2022-08-19T21:54:24;98711.06;;;20.84;73.35
5238;BME280;2639;49.700;7.962;2022-08-19T21:57:46;98718.94;;;20.85;72.93
5238;BME280;2639;49.700;7.962;2022-08-19T22:02:00;98719.69;;;20.81;73.05
5238;BME280;2639;49.700;7.962;2022-08-19T22:05:28;98723.06;;;20.78;74.11
5238;BME280;2639;49.700;7.962;2022-08-19T22:08:38;98723.91;;;20.77;74.18
5238;BME280;2639;49.700;7.962;2022-08-19T22:11:49;98724.75;;;20.76;74.92
5238;BME280;2639;49.700;7.962;2022-08-19T22:14:59;98721.19;;;20.74;74.49
